createdAt,value
2023-04-14T00:01:45.061Z,6.53
2023-04-14T00:04:14.769Z,6.49
2023-04-14T00:06:44.069Z,6.43
2023-04-14T00:09:12.686Z,6.36
2023-04-14T00:11:41.368Z,6.32
2023-04-14T00:14:11.406Z,6.25
2023-04-14T00:16:40.729Z,6.20
2023-04-14T00:19:09.500Z,6.14
2023-04-14T00:21:38.180Z,6.09
2023-04-14T00:24:07.080Z,6.04
2023-04-14T00:26:35.862Z,6.00
2023-04-14T00:29:04.499Z,5.97
2023-04-14T00:31:34.743Z,5.91
2023-04-14T00:34:04.375Z,5.85
2023-04-14T00:36:33.417Z,5.82
2023-04-14T00:39:04.652Z,5.81
2023-04-14T00:41:35.953Z,5.77
2023-04-14T00:44:05.987Z,5.74
2023-04-14T00:46:36.959Z,5.71
2023-04-14T00:49:05.826Z,5.68
2023-04-14T00:51:35.419Z,5.63
2023-04-14T00:54:08.116Z,5.59
2023-04-14T00:56:36.889Z,5.55
2023-04-14T00:59:07.690Z,5.52
2023-04-14T01:01:38.239Z,5.49
2023-04-14T01:04:07.785Z,5.45
2023-04-14T01:06:38.162Z,5.39
2023-04-14T01:09:07.086Z,5.36
2023-04-14T01:11:45.731Z,5.33
2023-04-14T01:14:19.847Z,5.30
2023-04-14T01:16:53.093Z,5.28
2023-04-14T01:19:42.915Z,5.24
2023-04-14T01:22:13.521Z,5.19
2023-04-14T01:24:59.209Z,5.15
2023-04-14T01:27:38.783Z,5.10
2023-04-14T01:30:29.623Z,5.09
2023-04-14T01:33:05.492Z,5.03
2023-04-14T01:35:38.411Z,4.99
2023-04-14T01:38:12.197Z,4.94
2023-04-14T01:40:43.550Z,4.91
2023-04-14T01:43:14.529Z,4.88
2023-04-14T01:45:50.104Z,4.85
2023-04-14T01:48:21.370Z,4.82
2023-04-14T01:50:50.733Z,4.82
2023-04-14T01:53:21.809Z,4.80
2023-04-14T01:55:51.877Z,4.81
2023-04-14T01:58:22.985Z,4.78
2023-04-14T02:00:53.444Z,4.76
2023-04-14T02:03:25.148Z,4.74
2023-04-14T02:05:56.055Z,4.73
2023-04-14T02:08:25.763Z,4.71
2023-04-14T02:10:56.267Z,4.69
2023-04-14T02:13:27.239Z,4.66
2023-04-14T02:15:57.342Z,4.65
2023-04-14T02:18:29.317Z,4.62
2023-04-14T02:21:00.368Z,4.58
2023-04-14T02:23:29.559Z,4.54
2023-04-14T02:26:03.835Z,4.48
2023-04-14T02:28:39.075Z,4.47
2023-04-14T02:31:13.401Z,4.45
2023-04-14T02:33:47.649Z,4.43
2023-04-14T02:36:19.370Z,4.40
2023-04-14T02:38:53.418Z,4.38
2023-04-14T02:41:26.169Z,4.34
2023-04-14T02:44:05.100Z,4.29
2023-04-14T02:46:40.393Z,4.25
2023-04-14T02:49:14.683Z,4.23
2023-04-14T02:51:46.649Z,4.21
2023-04-14T02:54:17.812Z,4.19
2023-04-14T02:56:49.730Z,4.19
2023-04-14T02:59:22.525Z,4.17
2023-04-14T03:02:02.291Z,4.14
2023-04-14T03:04:35.913Z,4.14
2023-04-14T03:07:09.887Z,4.10
2023-04-14T03:09:40.444Z,4.05
2023-04-14T03:12:13.949Z,4.04
2023-04-14T03:14:45.825Z,4.02
2023-04-14T03:17:17.666Z,3.99
2023-04-14T03:19:50.589Z,3.96
2023-04-14T03:22:22.197Z,3.93
2023-04-14T03:24:53.375Z,3.92
2023-04-14T03:27:26.271Z,3.91
2023-04-14T03:29:59.442Z,3.88
2023-04-14T03:32:34.296Z,3.83
2023-04-14T03:35:05.008Z,3.79
2023-04-14T03:37:37.932Z,3.76
2023-04-14T03:40:09.116Z,3.74
2023-04-14T03:42:44.664Z,3.72
2023-04-14T03:45:17.743Z,3.67
2023-04-14T03:47:47.106Z,3.62
2023-04-14T03:50:21.164Z,3.60
2023-04-14T03:52:55.741Z,3.59
2023-04-14T03:55:27.462Z,3.56
2023-04-14T03:57:58.060Z,3.54
2023-04-14T04:00:34.885Z,3.53
2023-04-14T04:03:04.692Z,3.54
2023-04-14T04:05:35.791Z,3.52
2023-04-14T04:08:06.842Z,3.51
2023-04-14T04:10:36.976Z,3.49
2023-04-14T04:13:10.291Z,3.49
2023-04-14T04:15:40.882Z,3.48
2023-04-14T04:18:13.273Z,3.49
2023-04-14T04:20:43.867Z,3.50
2023-04-14T04:23:13.428Z,3.51
2023-04-14T04:25:42.839Z,3.51
2023-04-14T04:28:22.991Z,3.51
2023-04-14T04:30:53.878Z,3.50
2023-04-14T04:33:24.034Z,3.51
2023-04-14T04:35:56.311Z,3.52
2023-04-14T04:38:29.128Z,3.53
2023-04-14T04:40:57.778Z,3.54
2023-04-14T04:43:28.907Z,3.54
2023-04-14T04:46:15.488Z,3.55
2023-04-14T04:48:44.015Z,3.56
2023-04-14T04:51:13.925Z,3.56
2023-04-14T04:53:42.791Z,3.56
2023-04-14T04:56:11.390Z,3.56
2023-04-14T04:58:39.977Z,3.59
2023-04-14T05:01:09.912Z,3.59
2023-04-14T05:03:38.987Z,3.60
2023-04-14T05:06:07.811Z,3.59
2023-04-14T05:08:37.662Z,3.58
2023-04-14T05:11:07.115Z,3.56
2023-04-14T05:13:35.639Z,3.56
2023-04-14T05:16:05.350Z,3.56
2023-04-14T05:18:34.970Z,3.55
2023-04-14T05:21:04.793Z,3.56
2023-04-14T05:23:34.427Z,3.55
2023-04-14T05:26:27.040Z,3.55
2023-04-14T05:28:54.114Z,3.54
2023-04-14T05:31:22.848Z,3.54
2023-04-14T05:33:51.352Z,3.53
2023-04-14T05:36:20.025Z,3.53
2023-04-14T05:38:48.628Z,3.55
2023-04-14T05:41:18.721Z,3.57
2023-04-14T05:43:47.280Z,3.59
2023-04-14T05:46:16.396Z,3.62
2023-04-14T05:48:44.924Z,3.64
2023-04-14T05:51:13.860Z,3.67
2023-04-14T05:53:42.865Z,3.70
2023-04-14T05:56:11.728Z,3.73
2023-04-14T05:58:41.752Z,3.76
2023-04-14T06:01:10.789Z,3.80
2023-04-14T06:03:40.609Z,3.82
2023-04-14T06:06:09.783Z,3.85
2023-04-14T06:08:38.359Z,3.90
2023-04-14T06:11:07.017Z,3.94
2023-04-14T06:13:36.579Z,3.98
2023-04-14T06:16:07.855Z,4.05
2023-04-14T06:18:36.559Z,4.11
2023-04-14T06:21:05.754Z,4.16
2023-04-14T06:23:34.729Z,4.24
2023-04-14T06:26:05.502Z,4.32
2023-04-14T06:28:34.163Z,4.40
2023-04-14T06:31:02.904Z,4.48
2023-04-14T06:33:33.140Z,4.56
2023-04-14T06:36:02.960Z,4.66
2023-04-14T06:38:31.555Z,4.73
2023-04-14T06:41:01.736Z,4.83
2023-04-14T06:43:30.939Z,4.91
2023-04-14T06:45:59.575Z,5.01
2023-04-14T06:48:29.296Z,5.09
2023-04-14T06:51:04.047Z,5.18
2023-04-14T06:53:32.600Z,5.27
2023-04-14T06:56:01.579Z,5.36
2023-04-14T06:58:30.432Z,5.44
2023-04-14T07:01:00.139Z,5.53
2023-04-14T07:03:30.546Z,5.62
2023-04-14T07:06:10.196Z,5.71
2023-04-14T07:08:40.709Z,5.80
2023-04-14T07:11:13.107Z,5.88
2023-04-14T07:13:42.032Z,5.93
2023-04-14T07:16:13.011Z,6.03
2023-04-14T07:18:42.176Z,6.12
2023-04-14T07:21:12.432Z,6.18
2023-04-14T07:23:42.804Z,6.28
2023-04-14T07:26:11.853Z,6.36
2023-04-14T07:28:40.702Z,6.44
2023-04-14T07:31:10.323Z,6.53
2023-04-14T07:33:39.996Z,6.62
2023-04-14T07:36:09.664Z,6.72
2023-04-14T07:38:40.165Z,6.81
2023-04-14T07:41:09.811Z,6.92
2023-04-14T07:43:40.161Z,7.00
2023-04-14T07:46:09.415Z,7.09
2023-04-14T07:48:39.440Z,7.16
2023-04-14T07:51:08.604Z,7.25
2023-04-14T07:53:42.348Z,7.34
2023-04-14T07:56:12.912Z,7.43
2023-04-14T07:58:41.837Z,7.52
2023-04-14T08:01:10.598Z,7.60
2023-04-14T08:03:40.211Z,7.65
2023-04-14T08:06:10.944Z,7.72
2023-04-14T08:08:40.064Z,7.77
2023-04-14T08:11:08.859Z,7.85
2023-04-14T08:13:39.026Z,7.91
2023-04-14T08:16:07.897Z,7.98
2023-04-14T08:18:37.409Z,8.05
2023-04-14T08:21:06.863Z,8.13
2023-04-14T08:23:35.873Z,8.20
2023-04-14T08:26:05.216Z,8.30
2023-04-14T08:28:34.074Z,8.37
2023-04-14T08:31:04.182Z,8.44
2023-04-14T08:33:34.018Z,8.53
2023-04-14T08:36:02.940Z,8.60
2023-04-14T08:38:31.587Z,8.68
2023-04-14T08:41:02.731Z,8.76
2023-04-14T08:43:31.522Z,8.84
2023-04-14T08:46:03.207Z,8.92
2023-04-14T08:48:33.157Z,8.99
2023-04-14T08:51:08.018Z,9.07
2023-04-14T08:53:42.966Z,9.17
2023-04-14T08:56:13.133Z,9.25
2023-04-14T08:58:42.136Z,9.31
2023-04-14T09:01:13.007Z,9.40
2023-04-14T09:03:42.250Z,9.47
2023-04-14T09:06:11.223Z,9.55
2023-04-14T09:08:39.950Z,9.63
2023-04-14T09:11:09.038Z,9.70
2023-04-14T09:13:39.197Z,9.79
2023-04-14T09:16:09.275Z,9.88
2023-04-14T09:18:40.060Z,9.96
2023-04-14T09:21:51.118Z,10.02
2023-04-14T09:23:58.478Z,10.10
2023-04-14T09:26:31.704Z,10.16
2023-04-14T09:29:00.982Z,10.21
2023-04-14T09:31:30.196Z,10.28
2023-04-14T15:27:23.840Z,22.23
2023-04-14T15:29:54.210Z,22.18
2023-04-14T15:32:25.257Z,22.31
2023-04-14T15:34:55.703Z,22.43
2023-04-14T15:37:24.359Z,22.47
2023-04-14T15:39:53.138Z,22.59
2023-04-14T15:42:23.146Z,22.69
2023-04-14T15:44:51.991Z,22.76
2023-04-14T15:47:20.571Z,22.81
2023-04-14T15:49:52.458Z,22.81
2023-04-14T15:52:38.268Z,22.73
2023-04-14T15:55:08.243Z,22.60
2023-04-14T15:57:38.235Z,22.43
2023-04-14T16:00:08.354Z,22.19
2023-04-14T16:02:43.171Z,21.90
2023-04-14T16:05:12.732Z,21.57
2023-04-14T16:07:41.559Z,21.32
2023-04-14T16:10:10.653Z,21.13
2023-04-14T16:12:40.741Z,21.09
2023-04-14T16:15:10.147Z,21.15
2023-04-14T16:17:38.893Z,21.28
2023-04-14T16:20:08.188Z,21.44
2023-04-14T16:22:37.017Z,21.56
2023-04-14T16:25:06.982Z,21.69
2023-04-14T16:27:35.618Z,21.74
2023-04-14T16:30:06.230Z,21.85
2023-04-14T16:32:34.949Z,21.92
2023-04-14T16:35:03.592Z,21.98
2023-04-14T16:37:32.225Z,22.04
2023-04-14T16:40:00.806Z,22.06
2023-04-14T16:42:29.604Z,22.04
2023-04-14T16:44:58.477Z,22.01
2023-04-14T16:47:28.439Z,21.96
2023-04-14T16:49:57.329Z,21.87
2023-04-14T16:52:27.396Z,21.83
2023-04-14T16:54:56.085Z,21.72
2023-04-14T16:57:24.688Z,21.59
2023-04-14T16:59:53.246Z,21.39
2023-04-14T17:02:23.339Z,21.21
2023-04-14T17:04:53.495Z,21.00
2023-04-14T17:07:22.220Z,20.78
2023-04-14T17:09:50.890Z,20.52
2023-04-14T17:12:19.374Z,20.27
2023-04-14T17:14:48.097Z,20.06
2023-04-14T17:17:16.682Z,19.84
2023-04-14T17:19:45.607Z,19.64
2023-04-14T17:22:15.607Z,19.46
2023-04-14T17:24:45.704Z,19.28
2023-04-14T17:27:14.485Z,19.09
2023-04-14T17:29:42.943Z,18.92
2023-04-14T17:32:12.237Z,18.79
2023-04-14T17:34:41.149Z,18.65
2023-04-14T17:37:10.220Z,18.50
2023-04-14T17:39:40.236Z,18.33
2023-04-14T17:42:11.379Z,18.19
2023-04-14T17:44:40.560Z,18.07
2023-04-14T17:47:15.173Z,17.94
2023-04-14T17:49:44.007Z,17.81
2023-04-14T17:52:21.216Z,17.69
2023-04-14T17:54:51.776Z,17.56
2023-04-14T17:57:20.305Z,17.43
2023-04-14T17:59:49.135Z,17.33
2023-04-14T18:02:17.991Z,17.22
2023-04-14T18:04:47.313Z,17.11
2023-04-14T18:07:16.061Z,16.98
2023-04-14T18:09:44.792Z,16.88
2023-04-14T18:12:14.924Z,16.76
2023-04-14T18:14:46.693Z,16.65
2023-04-14T18:17:15.286Z,16.55
2023-04-14T18:19:43.948Z,16.45
2023-04-14T18:22:12.459Z,16.33
2023-04-14T18:29:48.638Z,15.99
2023-04-14T18:32:17.322Z,15.85
2023-04-14T18:34:46.191Z,15.72
2023-04-14T18:37:15.696Z,15.60
2023-04-14T18:39:45.535Z,15.48
2023-04-14T18:42:17.081Z,15.36
2023-04-14T18:44:45.807Z,15.23
2023-04-14T18:47:18.612Z,15.14
2023-04-14T18:49:47.581Z,15.02
2023-04-14T18:52:16.687Z,14.95
2023-04-14T18:54:45.797Z,14.87
2023-04-14T18:57:19.532Z,14.77
2023-04-14T18:59:48.620Z,14.68
2023-04-14T19:02:17.681Z,14.59
2023-04-14T19:04:46.895Z,14.52
2023-04-14T19:07:16.204Z,14.44
2023-04-14T19:09:49.616Z,14.35
2023-04-14T19:12:28.112Z,14.25
2023-04-14T19:15:02.724Z,14.17
2023-04-14T19:17:34.785Z,14.06
2023-04-14T19:20:08.853Z,13.96
2023-04-14T19:22:46.512Z,13.88
2023-04-14T19:25:15.603Z,13.81
2023-04-14T19:27:46.003Z,13.73
2023-04-14T19:30:14.922Z,13.66
2023-04-14T19:32:44.102Z,13.61
2023-04-14T19:35:13.226Z,13.54
2023-04-14T19:37:41.838Z,13.46
2023-04-14T19:40:11.147Z,13.38
2023-04-14T19:42:39.896Z,13.30
2023-04-14T19:45:11.382Z,13.23
2023-04-14T19:47:40.104Z,13.14
2023-04-14T19:50:09.785Z,13.09
2023-04-14T19:52:38.613Z,13.05
2023-04-14T19:55:08.508Z,12.99
2023-04-14T19:57:37.138Z,12.97
2023-04-14T20:00:07.590Z,12.91
2023-04-14T20:02:42.263Z,12.83
2023-04-14T20:05:11.304Z,12.79
2023-04-14T20:07:40.683Z,12.75
2023-04-14T20:10:10.123Z,12.70
2023-04-14T20:12:38.734Z,12.65
2023-04-14T20:15:08.910Z,12.62
2023-04-14T20:17:37.700Z,12.57
2023-04-14T20:20:13.163Z,12.52
2023-04-14T20:22:41.915Z,12.46
2023-04-14T20:25:12.944Z,12.39
2023-04-14T20:27:41.585Z,12.33
2023-04-14T20:30:11.132Z,12.28
2023-04-14T20:32:39.727Z,12.23
2023-04-14T20:35:10.300Z,12.15
2023-04-14T20:37:39.109Z,12.08
2023-04-14T20:40:09.043Z,12.02
2023-04-14T20:42:37.750Z,11.97
2023-04-14T20:45:07.296Z,11.92
2023-04-14T20:47:36.484Z,11.86
2023-04-14T20:50:05.810Z,11.82
2023-04-14T20:52:36.264Z,11.79
2023-04-14T20:55:05.526Z,11.75
2023-04-14T20:57:34.134Z,11.70
2023-04-14T21:00:03.068Z,11.65
2023-04-14T21:02:32.578Z,11.59
2023-04-14T21:05:01.365Z,11.53
2023-04-14T21:07:30.167Z,11.48
2023-04-14T21:10:00.295Z,11.44
2023-04-14T21:12:35.486Z,11.39
2023-04-14T21:15:48.114Z,11.33
2023-04-14T21:17:54.966Z,11.28
2023-04-14T21:20:24.349Z,11.21
2023-04-14T21:22:53.242Z,11.13
2023-04-14T21:25:23.415Z,11.05
2023-04-14T21:27:52.224Z,10.96
2023-04-14T21:30:21.262Z,10.91
2023-04-14T21:32:50.087Z,10.86
2023-04-14T21:35:19.654Z,10.83
2023-04-14T21:37:48.972Z,10.78
2023-04-14T21:40:17.821Z,10.72
2023-04-14T21:42:48.106Z,10.66
2023-04-14T21:45:17.262Z,10.58
2023-04-14T21:47:45.980Z,10.53
2023-04-14T21:50:14.990Z,10.46
2023-04-14T21:52:43.902Z,10.39
2023-04-14T21:55:13.024Z,10.32
2023-04-14T21:57:44.233Z,10.22
2023-04-14T22:00:20.375Z,10.16
2023-04-14T22:02:49.673Z,10.09
2023-04-14T22:05:21.905Z,10.06
2023-04-14T22:07:56.408Z,10.01
2023-04-14T22:10:31.807Z,9.98
2023-04-14T22:13:01.432Z,9.95
2023-04-14T22:15:34.884Z,9.92
2023-04-14T22:18:04.111Z,9.89
2023-04-14T22:20:33.135Z,9.85
2023-04-14T22:23:01.940Z,9.82
2023-04-14T22:25:30.667Z,9.77
2023-04-14T22:27:59.490Z,9.72
2023-04-14T22:30:28.405Z,9.66
2023-04-14T22:32:58.598Z,9.62
2023-04-14T22:35:27.508Z,9.59
2023-04-14T22:37:56.350Z,9.55
2023-04-14T22:40:25.460Z,9.52
2023-04-14T22:42:54.284Z,9.47
2023-04-14T22:45:22.968Z,9.41
2023-04-14T22:47:51.582Z,9.35
2023-04-14T22:50:21.594Z,9.31
2023-04-14T22:52:50.134Z,9.27
2023-04-14T22:55:19.041Z,9.23
2023-04-14T22:57:47.681Z,9.19
2023-04-14T23:00:17.209Z,9.14
2023-04-14T23:02:46.404Z,9.07
2023-04-14T23:05:15.441Z,9.02
2023-04-14T23:07:45.756Z,8.98
2023-04-14T23:10:14.490Z,8.94
2023-04-14T23:12:43.034Z,8.89
2023-04-14T23:15:11.834Z,8.86
2023-04-14T23:17:40.706Z,8.81
2023-04-14T23:20:10.273Z,8.78
2023-04-14T23:22:39.579Z,8.73
2023-04-14T23:25:10.637Z,8.71
2023-04-14T23:27:39.313Z,8.67
2023-04-14T23:30:08.943Z,8.62
2023-04-14T23:32:37.599Z,8.57
2023-04-14T23:35:07.489Z,8.54
2023-04-14T23:37:37.203Z,8.50
2023-04-14T23:40:08.035Z,8.47
2023-04-14T23:42:38.379Z,8.45
2023-04-14T23:45:08.270Z,8.41
2023-04-14T23:47:36.980Z,8.39
2023-04-14T23:50:06.193Z,8.35
2023-04-14T23:52:35.979Z,8.32
2023-04-14T23:55:04.739Z,8.28
2023-04-14T23:57:33.508Z,8.27
